createdAt,value
2022-07-29T00:02:27.137Z,1.73
2022-07-29T00:04:54.089Z,1.80
2022-07-29T00:07:21.241Z,1.67
2022-07-29T00:09:51.833Z,1.67
2022-07-29T00:12:25.456Z,1.60
2022-07-29T00:14:54.971Z,2.05
2022-07-29T00:17:21.662Z,1.57
2022-07-29T00:19:48.274Z,1.55
2022-07-29T00:22:14.923Z,2.38
2022-07-29T00:24:41.767Z,1.90
2022-07-29T00:27:08.423Z,1.55
2022-07-29T00:29:35.415Z,2.00
2022-07-29T00:32:03.198Z,1.70
2022-07-29T00:34:48.842Z,1.95
2022-07-29T00:37:15.495Z,1.33
2022-07-29T00:39:42.071Z,1.80
2022-07-29T00:42:09.220Z,1.77
2022-07-29T00:44:42.151Z,2.25
2022-07-29T00:47:10.513Z,1.90
2022-07-29T00:49:37.712Z,1.90
2022-07-29T00:52:08.880Z,1.60
2022-07-29T00:54:43.828Z,1.70
2022-07-29T00:57:10.901Z,1.73
2022-07-29T00:59:37.530Z,2.10
2022-07-29T01:02:04.614Z,2.20
2022-07-29T01:04:33.123Z,2.05
2022-07-29T01:07:03.963Z,2.13
2022-07-29T01:09:35.016Z,1.67
2022-07-29T01:12:14.019Z,1.80
2022-07-29T01:14:41.848Z,1.98
2022-07-29T01:17:50.389Z,1.70
2022-07-29T01:20:47.727Z,1.63
2022-07-29T01:23:32.935Z,1.80
2022-07-29T01:26:23.042Z,2.00
2022-07-29T01:28:58.417Z,2.22
2022-07-29T01:31:32.619Z,1.95
2022-07-29T01:34:07.072Z,1.80
2022-07-29T01:36:38.202Z,2.08
2022-07-29T01:39:20.571Z,2.20
2022-07-29T01:41:55.248Z,1.60
2022-07-29T01:44:33.203Z,1.90
2022-07-29T01:47:05.934Z,2.77
2022-07-29T01:49:37.830Z,2.00
2022-07-29T01:52:14.147Z,2.10
2022-07-29T01:54:59.779Z,1.85
2022-07-29T01:57:30.233Z,2.35
2022-07-29T01:59:59.562Z,2.47
2022-07-29T02:02:29.122Z,2.38
2022-07-29T02:04:57.372Z,1.77
2022-07-29T02:07:27.059Z,1.67
2022-07-29T02:09:54.724Z,1.85
2022-07-29T02:12:22.887Z,2.57
2022-07-29T02:14:52.965Z,2.10
2022-07-29T02:17:28.718Z,1.83
2022-07-29T02:20:00.274Z,1.83
2022-07-29T02:22:30.398Z,2.10
2022-07-29T02:24:58.317Z,1.97
2022-07-29T02:27:29.417Z,2.00
2022-07-29T02:29:58.967Z,2.00
2022-07-29T02:32:28.283Z,1.80
2022-07-29T02:34:56.717Z,2.10
2022-07-29T02:37:24.945Z,2.47
2022-07-29T02:39:54.807Z,2.00
2022-07-29T02:42:25.049Z,2.30
2022-07-29T02:44:52.484Z,2.33
2022-07-29T02:47:25.444Z,2.30
2022-07-29T02:50:09.258Z,2.20
2022-07-29T02:52:42.900Z,2.35
2022-07-29T02:55:16.437Z,2.40
2022-07-29T02:57:55.139Z,1.92
2022-07-29T03:00:24.921Z,2.22
2022-07-29T03:02:55.170Z,2.10
2022-07-29T03:05:22.885Z,2.33
2022-07-29T03:08:11.651Z,2.33
2022-07-29T03:10:48.155Z,1.88
2022-07-29T03:13:16.782Z,2.42
2022-07-29T03:15:45.199Z,2.60
2022-07-29T03:18:12.232Z,1.98
2022-07-29T03:20:39.816Z,2.28
2022-07-29T03:23:06.368Z,2.05
2022-07-29T03:25:33.090Z,2.45
2022-07-29T03:28:00.018Z,2.63
2022-07-29T03:30:27.058Z,2.45
2022-07-29T03:32:54.554Z,2.42
2022-07-29T03:35:23.737Z,2.60
2022-07-29T03:37:50.525Z,2.50
2022-07-29T03:40:26.917Z,2.30
2022-07-29T03:42:55.855Z,2.60
2022-07-29T03:45:24.059Z,2.20
2022-07-29T03:48:00.668Z,2.40
2022-07-29T03:50:29.778Z,2.50
2022-07-29T03:52:56.543Z,2.77
2022-07-29T03:55:23.231Z,2.80
2022-07-29T03:57:51.543Z,2.33
2022-07-29T04:00:18.796Z,2.50
2022-07-29T04:02:50.110Z,2.95
2022-07-29T04:05:18.087Z,2.27
2022-07-29T04:07:49.102Z,2.70
2022-07-29T04:10:16.780Z,2.80
2022-07-29T04:12:43.818Z,2.63
2022-07-29T04:15:11.039Z,2.97
2022-07-29T04:17:38.141Z,2.33
2022-07-29T04:20:05.813Z,2.75
2022-07-29T04:22:32.447Z,3.20
2022-07-29T04:25:03.341Z,2.80
2022-07-29T04:27:30.607Z,2.80
2022-07-29T04:29:57.671Z,2.40
2022-07-29T04:32:25.146Z,2.92
2022-07-29T04:34:52.247Z,2.90
2022-07-29T04:37:18.785Z,3.17
2022-07-29T04:39:45.496Z,3.17
2022-07-29T04:42:12.035Z,2.97
2022-07-29T04:44:42.887Z,3.03
2022-07-29T04:47:10.103Z,3.10
2022-07-29T04:49:39.397Z,2.88
2022-07-29T04:52:06.816Z,2.90
2022-07-29T04:54:33.460Z,2.80
2022-07-29T04:57:00.105Z,3.33
2022-07-29T04:59:27.859Z,3.40
2022-07-29T05:01:54.861Z,2.97
2022-07-29T05:04:21.553Z,2.63
2022-07-29T05:06:48.544Z,3.03
2022-07-29T05:09:16.379Z,2.70
2022-07-29T05:11:42.956Z,3.05
2022-07-29T05:14:09.545Z,3.10
2022-07-29T05:16:36.173Z,3.25
2022-07-29T05:19:03.099Z,3.10
2022-07-29T05:21:29.874Z,2.92
2022-07-29T05:23:56.392Z,3.65
2022-07-29T05:26:23.377Z,3.60
2022-07-29T05:28:50.238Z,3.33
2022-07-29T05:31:16.898Z,3.40
2022-07-29T05:33:43.939Z,3.15
2022-07-29T05:36:10.489Z,3.47
2022-07-29T05:38:37.514Z,3.45
2022-07-29T05:41:05.460Z,2.78
2022-07-29T05:43:32.798Z,3.30
2022-07-29T05:45:59.671Z,3.25
2022-07-29T05:48:26.665Z,3.72
2022-07-29T05:50:53.427Z,3.08
2022-07-29T05:53:20.834Z,2.80
2022-07-29T05:55:51.033Z,2.70
2022-07-29T05:58:17.950Z,2.88
2022-07-29T06:00:45.238Z,2.55
2022-07-29T06:03:11.931Z,2.58
2022-07-29T06:05:38.550Z,2.67
2022-07-29T06:08:08.594Z,2.17
2022-07-29T06:10:39.270Z,2.55
2022-07-29T06:13:05.911Z,3.03
2022-07-29T06:15:32.800Z,2.65
2022-07-29T06:18:01.279Z,2.60
2022-07-29T06:20:32.706Z,2.50
2022-07-29T06:23:01.461Z,2.60
2022-07-29T06:25:30.443Z,2.50
2022-07-29T06:27:57.976Z,2.35
2022-07-29T06:30:34.038Z,2.67
2022-07-29T06:33:02.451Z,2.03
2022-07-29T06:35:38.626Z,2.60
2022-07-29T06:38:30.315Z,2.25
2022-07-29T06:41:02.762Z,2.53
2022-07-29T06:43:50.581Z,2.33
2022-07-29T06:46:19.287Z,2.00
2022-07-29T06:48:49.471Z,2.33
2022-07-29T06:51:23.046Z,2.42
2022-07-29T06:54:00.168Z,2.20
2022-07-29T06:56:39.608Z,2.88
2022-07-29T06:59:08.640Z,2.20
2022-07-29T07:01:37.110Z,1.95
2022-07-29T07:04:03.972Z,2.05
2022-07-29T07:06:30.657Z,1.90
2022-07-29T07:09:00.435Z,2.30
2022-07-29T07:11:27.000Z,1.90
2022-07-29T07:13:53.665Z,2.13
2022-07-29T07:16:21.637Z,2.30
2022-07-29T07:18:48.213Z,1.94
2022-07-29T07:21:19.253Z,1.92
2022-07-29T07:23:46.819Z,2.33
2022-07-29T07:26:13.648Z,2.53
2022-07-29T07:28:40.268Z,1.85
2022-07-29T07:31:06.909Z,2.83
2022-07-29T07:33:33.448Z,2.28
2022-07-29T07:36:00.045Z,2.20
2022-07-29T07:38:26.667Z,2.33
2022-07-29T07:40:53.290Z,2.22
2022-07-29T07:43:19.972Z,2.00
2022-07-29T07:45:46.634Z,2.20
2022-07-29T07:48:13.211Z,2.42
2022-07-29T07:50:39.816Z,2.00
2022-07-29T07:53:06.400Z,2.13
2022-07-29T07:56:00.045Z,2.15
2022-07-29T07:58:19.553Z,2.38
2022-07-29T08:00:46.260Z,2.22
2022-07-29T08:03:16.737Z,2.40
2022-07-29T08:05:44.319Z,2.15
2022-07-29T08:08:10.921Z,2.22
2022-07-29T08:10:57.096Z,2.00
2022-07-29T08:13:29.268Z,2.15
2022-07-29T08:15:59.225Z,2.27
2022-07-29T08:18:27.073Z,3.08
2022-07-29T08:20:53.819Z,2.53
2022-07-29T08:23:20.696Z,2.58
2022-07-29T08:25:47.352Z,2.70
2022-07-29T08:28:17.571Z,2.93
2022-07-29T08:30:44.132Z,2.92
2022-07-29T08:33:10.688Z,2.95
2022-07-29T08:35:37.315Z,2.80
2022-07-29T08:38:04.487Z,2.40
2022-07-29T08:40:32.664Z,3.03
2022-07-29T08:43:00.778Z,2.55
2022-07-29T08:45:30.516Z,2.70
2022-07-29T08:47:57.770Z,2.13
2022-07-29T08:50:24.348Z,3.10
2022-07-29T08:52:54.414Z,3.00
2022-07-29T08:55:23.326Z,2.38
2022-07-29T08:57:50.962Z,2.47
2022-07-29T09:00:22.862Z,2.63
2022-07-29T09:02:57.176Z,2.83
2022-07-29T09:05:25.262Z,2.33
2022-07-29T09:07:52.126Z,2.63
2022-07-29T09:10:19.106Z,2.13
2022-07-29T09:12:45.830Z,2.53
2022-07-29T09:15:12.379Z,2.47
2022-07-29T09:17:47.145Z,2.40
2022-07-29T09:20:23.389Z,3.30
2022-07-29T09:22:54.088Z,2.60
2022-07-29T09:25:36.397Z,2.83
2022-07-29T09:28:11.945Z,3.05
2022-07-29T09:30:55.573Z,3.23
2022-07-29T09:33:24.269Z,3.08
2022-07-29T09:36:20.350Z,2.85
2022-07-29T09:38:58.869Z,2.67
2022-07-29T09:41:25.842Z,2.63
2022-07-29T09:43:57.077Z,2.57
2022-07-29T09:46:25.101Z,2.70
2022-07-29T09:49:10.310Z,2.67
2022-07-29T09:51:38.039Z,2.08
2022-07-29T09:54:37.995Z,2.60
2022-07-29T09:57:06.792Z,2.50
2022-07-29T09:59:34.348Z,2.60
2022-07-29T10:02:01.063Z,3.10
2022-07-29T10:04:41.520Z,2.63
2022-07-29T10:07:10.704Z,2.88
2022-07-29T10:09:37.870Z,2.40
2022-07-29T10:12:09.029Z,3.00
2022-07-29T10:14:36.335Z,2.55
2022-07-29T10:17:04.521Z,2.47
2022-07-29T10:19:32.488Z,2.85
2022-07-29T10:22:00.537Z,2.20
2022-07-29T10:24:28.970Z,2.28
2022-07-29T10:26:56.919Z,3.88
2022-07-29T10:29:24.536Z,2.20
2022-07-29T10:32:11.167Z,2.25
2022-07-29T10:35:31.906Z,2.60
2022-07-29T10:38:24.654Z,2.50
2022-07-29T10:41:22.441Z,1.98
2022-07-29T10:43:52.731Z,2.30
2022-07-29T10:46:21.696Z,3.08
2022-07-29T10:49:10.174Z,2.33
2022-07-29T10:51:53.222Z,2.25
2022-07-29T10:54:37.519Z,2.63
2022-07-29T10:57:53.284Z,2.55
2022-07-29T11:00:29.734Z,2.35
2022-07-29T11:03:01.663Z,2.50
2022-07-29T11:06:08.668Z,2.30
2022-07-29T11:08:35.448Z,2.45
2022-07-29T11:11:20.215Z,2.58
2022-07-29T11:13:52.255Z,2.33
2022-07-29T11:16:25.239Z,2.63
2022-07-29T11:19:26.723Z,2.38
2022-07-29T11:21:58.637Z,2.25
2022-07-29T11:24:31.860Z,2.50
2022-07-29T11:27:17.873Z,2.15
2022-07-29T11:30:02.200Z,2.40
2022-07-29T11:32:48.417Z,2.50
2022-07-29T11:35:37.144Z,2.60
2022-07-29T11:38:24.365Z,2.35
2022-07-29T11:41:23.776Z,2.83
2022-07-29T11:44:00.887Z,2.40
2022-07-29T11:46:49.592Z,2.63
2022-07-29T11:49:32.147Z,2.53
2022-07-29T11:52:06.387Z,3.10
2022-07-29T11:54:57.145Z,2.42
2022-07-29T11:57:36.620Z,2.40
2022-07-29T12:00:12.677Z,2.22
2022-07-29T12:02:43.803Z,2.17
2022-07-29T12:05:22.248Z,2.67
2022-07-29T12:08:23.227Z,2.60
2022-07-29T12:10:51.719Z,2.50
2022-07-29T12:13:21.131Z,2.60
2022-07-29T12:15:59.981Z,2.15
2022-07-29T12:18:35.162Z,2.08
2022-07-29T12:21:06.300Z,1.98
2022-07-29T12:23:34.426Z,2.20
2022-07-29T12:26:04.915Z,2.42
2022-07-29T12:28:38.547Z,3.38
2022-07-29T12:31:06.347Z,2.00
2022-07-29T12:33:35.977Z,1.85
2022-07-29T12:36:07.513Z,1.50
2022-07-29T12:38:36.895Z,2.53
2022-07-29T12:41:04.854Z,2.42
2022-07-29T12:43:32.527Z,2.00
2022-07-29T12:46:12.117Z,2.20
2022-07-29T12:48:43.021Z,1.93
2022-07-29T12:51:12.587Z,2.22
2022-07-29T12:53:39.695Z,1.92
2022-07-29T12:56:20.780Z,2.20
2022-07-29T12:58:53.715Z,1.70
2022-07-29T13:01:21.746Z,1.93
2022-07-29T13:03:57.052Z,2.72
2022-07-29T13:06:41.201Z,1.80
2022-07-29T13:09:18.939Z,2.15
2022-07-29T13:11:50.858Z,1.73
2022-07-29T13:14:35.068Z,2.17
2022-07-29T13:17:12.217Z,2.08
2022-07-29T13:19:41.612Z,2.15
2022-07-29T13:22:11.597Z,2.10
2022-07-29T13:24:52.448Z,3.05
2022-07-29T13:27:20.830Z,1.97
2022-07-29T13:29:47.908Z,1.75
2022-07-29T13:32:14.699Z,2.58
2022-07-29T13:34:41.852Z,2.05
2022-07-29T13:37:08.592Z,2.20
2022-07-29T13:39:35.445Z,2.87
2022-07-29T13:42:02.156Z,2.28
2022-07-29T13:44:28.845Z,2.22
2022-07-29T13:46:55.542Z,2.10
2022-07-29T13:49:22.250Z,1.48
2022-07-29T13:51:50.096Z,2.07
2022-07-29T13:54:18.032Z,4.32
2022-07-29T13:56:44.732Z,2.10
2022-07-29T13:59:14.019Z,2.20
2022-07-29T14:01:43.191Z,2.17
2022-07-29T14:04:11.244Z,2.03
2022-07-29T14:06:40.501Z,2.17
2022-07-29T14:09:07.333Z,2.10
2022-07-29T14:11:34.349Z,2.03
2022-07-29T14:14:00.865Z,2.55
2022-07-29T14:16:27.544Z,2.30
2022-07-29T14:18:54.128Z,2.33
2022-07-29T14:21:20.889Z,2.40
2022-07-29T14:23:47.500Z,2.50
2022-07-29T14:26:36.121Z,2.63
2022-07-29T14:29:02.724Z,3.23
2022-07-29T14:31:29.483Z,2.75
2022-07-29T14:34:08.219Z,2.50
2022-07-29T14:36:34.738Z,2.15
2022-07-29T14:39:01.324Z,2.33
2022-07-29T14:41:29.276Z,3.80
2022-07-29T14:43:56.086Z,2.63
2022-07-29T14:46:22.697Z,2.30
2022-07-29T14:48:49.681Z,2.95
2022-07-29T14:51:16.539Z,2.90
2022-07-29T14:53:59.813Z,2.30
2022-07-29T14:56:46.694Z,2.20
2022-07-29T14:59:13.244Z,2.00
2022-07-29T15:01:39.803Z,2.15
2022-07-29T15:04:06.885Z,2.55
2022-07-29T15:06:33.763Z,2.70
2022-07-29T15:09:00.366Z,2.30
2022-07-29T15:11:26.926Z,2.08
2022-07-29T15:13:53.487Z,1.92
2022-07-29T15:16:20.157Z,1.95
2022-07-29T15:18:46.930Z,2.00
2022-07-29T15:21:13.491Z,1.90
2022-07-29T15:23:40.093Z,2.30
2022-07-29T15:26:06.635Z,1.88
2022-07-29T15:28:33.280Z,2.10
2022-07-29T15:30:59.989Z,2.00
2022-07-29T15:33:26.902Z,2.33
2022-07-29T15:35:53.891Z,2.03
2022-07-29T15:38:20.520Z,2.15
2022-07-29T15:40:55.353Z,1.70
2022-07-29T15:43:21.980Z,1.90
2022-07-29T15:46:07.560Z,1.85
2022-07-29T15:48:34.502Z,1.77
2022-07-29T15:51:01.475Z,1.83
2022-07-29T15:53:28.137Z,1.60
2022-07-29T15:55:54.743Z,1.77
2022-07-29T15:58:21.391Z,2.33
2022-07-29T16:00:48.010Z,2.13
2022-07-29T16:03:15.002Z,1.85
2022-07-29T16:05:41.892Z,1.75
2022-07-29T16:08:09.087Z,2.07
2022-07-29T16:10:35.650Z,1.67
2022-07-29T16:13:02.157Z,1.90
2022-07-29T16:15:28.704Z,2.15
2022-07-29T16:17:55.282Z,2.63
2022-07-29T16:20:22.451Z,2.60
2022-07-29T16:22:49.416Z,2.00
2022-07-29T16:25:15.942Z,2.00
2022-07-29T16:27:42.838Z,1.75
2022-07-29T16:30:09.978Z,2.03
2022-07-29T16:32:37.024Z,1.90
2022-07-29T16:35:05.290Z,2.03
2022-07-29T16:37:35.526Z,1.85
2022-07-29T16:40:03.596Z,1.98
2022-07-29T16:42:46.207Z,2.33
2022-07-29T16:45:13.904Z,1.97
2022-07-29T16:47:41.170Z,2.05
2022-07-29T16:50:08.662Z,1.80
2022-07-29T16:52:36.112Z,1.88
2022-07-29T16:55:02.822Z,1.90
2022-07-29T16:57:29.462Z,1.90
2022-07-29T16:59:56.007Z,1.52
2022-07-29T17:02:22.743Z,2.15
2022-07-29T17:04:49.358Z,1.85
2022-07-29T17:07:16.493Z,1.92
2022-07-29T17:09:43.126Z,1.90
2022-07-29T17:12:09.800Z,1.80
2022-07-29T17:14:36.858Z,3.15
2022-07-29T17:17:04.546Z,2.35
2022-07-29T17:19:40.477Z,2.00
2022-07-29T17:22:12.921Z,2.20
2022-07-29T17:24:42.866Z,2.60
2022-07-29T17:27:10.441Z,1.90
2022-07-29T17:29:38.766Z,2.13
2022-07-29T17:32:07.850Z,2.03
2022-07-29T17:34:38.787Z,1.60
2022-07-29T17:37:06.971Z,1.98
2022-07-29T17:39:35.507Z,2.00
2022-07-29T17:42:04.226Z,2.45
2022-07-29T17:44:30.847Z,2.20
2022-07-29T17:46:59.232Z,2.40
2022-07-29T17:49:27.002Z,1.90
2022-07-29T17:51:55.507Z,2.33
2022-07-29T17:54:27.267Z,2.22
2022-07-29T17:56:53.898Z,2.00
2022-07-29T17:59:21.838Z,1.90
2022-07-29T18:01:48.428Z,2.40
2022-07-29T18:04:20.115Z,2.10
2022-07-29T18:06:46.656Z,2.40
2022-07-29T18:09:13.286Z,1.90
2022-07-29T18:11:39.879Z,2.10
2022-07-29T18:14:11.050Z,2.10
2022-07-29T18:16:38.622Z,2.40
2022-07-29T18:19:05.443Z,2.17
2022-07-29T18:21:44.303Z,2.25
2022-07-29T18:24:18.698Z,2.30
2022-07-29T18:26:45.415Z,2.42
2022-07-29T18:29:12.530Z,1.85
2022-07-29T18:31:41.251Z,1.95
2022-07-29T18:34:07.983Z,3.38
2022-07-29T18:36:34.726Z,2.63
2022-07-29T18:39:01.272Z,2.00
2022-07-29T18:41:27.855Z,3.00
2022-07-29T18:43:54.483Z,2.17
2022-07-29T18:46:21.320Z,2.53
2022-07-29T18:48:48.216Z,3.03
2022-07-29T18:51:14.943Z,2.97
2022-07-29T18:53:43.089Z,2.38
2022-07-29T18:56:09.851Z,2.45
2022-07-29T18:58:38.299Z,2.50
2022-07-29T19:01:05.807Z,2.40
2022-07-29T19:03:32.407Z,2.75
2022-07-29T19:05:58.957Z,3.15
2022-07-29T19:08:25.558Z,2.70
2022-07-29T19:10:53.370Z,2.45
2022-07-29T19:13:19.979Z,2.20
2022-07-29T19:15:46.658Z,2.47
2022-07-29T19:18:16.215Z,2.95
2022-07-29T19:20:42.776Z,2.63
2022-07-29T19:23:09.378Z,2.45
2022-07-29T19:25:36.037Z,2.70
2022-07-29T19:28:02.737Z,2.20
2022-07-29T19:30:29.344Z,2.25
2022-07-29T19:32:56.053Z,2.78
2022-07-29T19:35:25.295Z,2.65
2022-07-29T19:37:52.776Z,2.97
2022-07-29T19:40:19.681Z,2.73
2022-07-29T19:42:48.270Z,2.65
2022-07-29T19:45:15.268Z,2.65
2022-07-29T19:47:41.923Z,2.50
2022-07-29T19:50:09.520Z,2.47
2022-07-29T19:52:36.525Z,3.30
2022-07-29T19:55:07.568Z,2.78
2022-07-29T19:57:40.747Z,3.38
2022-07-29T20:00:11.157Z,2.80
2022-07-29T20:02:39.623Z,3.20
2022-07-29T20:05:06.911Z,2.97
2022-07-29T20:07:33.488Z,3.58
2022-07-29T20:10:00.009Z,3.03
2022-07-29T20:12:26.573Z,2.90
2022-07-29T20:14:53.229Z,3.22
2022-07-29T20:17:22.227Z,3.50
2022-07-29T20:19:49.955Z,3.50
2022-07-29T20:22:21.222Z,3.78
2022-07-29T20:24:48.883Z,3.28
2022-07-29T20:27:15.413Z,3.22
2022-07-29T20:29:42.058Z,3.00
2022-07-29T20:32:08.887Z,3.08
2022-07-29T20:34:35.579Z,3.25
2022-07-29T20:37:02.896Z,3.13
2022-07-29T20:39:30.496Z,3.30
2022-07-29T20:41:57.175Z,3.60
2022-07-29T20:44:24.430Z,3.80
2022-07-29T20:46:51.103Z,3.08
2022-07-29T20:49:17.808Z,3.13
2022-07-29T20:51:44.567Z,3.65
2022-07-29T20:54:11.752Z,2.83
2022-07-29T20:56:39.074Z,3.30
2022-07-29T20:59:05.608Z,3.50
2022-07-29T21:01:32.171Z,3.40
2022-07-29T21:04:01.983Z,3.30
2022-07-29T21:06:29.057Z,3.70
2022-07-29T21:09:01.129Z,3.58
2022-07-29T21:11:44.202Z,3.53
2022-07-29T21:14:22.475Z,3.60
2022-07-29T21:16:50.430Z,3.30
2022-07-29T21:19:17.556Z,3.60
2022-07-29T21:21:44.107Z,3.50
2022-07-29T21:24:12.091Z,3.22
2022-07-29T21:26:38.910Z,3.58
2022-07-29T21:29:05.486Z,3.53
2022-07-29T21:31:32.027Z,3.83
2022-07-29T21:33:58.549Z,2.88
2022-07-29T21:39:11.589Z,4.28
2022-07-29T21:41:38.355Z,3.85
2022-07-29T21:44:05.004Z,3.60
2022-07-29T21:46:31.654Z,5.00
2022-07-29T21:48:58.309Z,3.65
2022-07-29T21:51:25.096Z,3.50
2022-07-29T21:53:53.068Z,4.15
2022-07-29T21:56:19.879Z,3.33
2022-07-29T21:58:47.881Z,3.25
2022-07-29T22:04:55.036Z,3.47
2022-07-29T22:07:21.551Z,3.67
2022-07-29T22:09:48.117Z,3.20
2022-07-29T22:12:14.860Z,3.33
2022-07-29T22:14:41.370Z,3.30
2022-07-29T22:17:07.992Z,3.53
2022-07-29T22:19:34.783Z,3.90
2022-07-29T22:22:01.433Z,3.40
2022-07-29T22:24:27.947Z,3.33
2022-07-29T22:26:54.493Z,3.40
2022-07-29T22:29:21.046Z,4.07
2022-07-29T22:31:47.570Z,4.03
2022-07-29T22:34:14.425Z,3.63
2022-07-29T22:36:41.222Z,3.58
2022-07-29T22:39:08.017Z,3.80
2022-07-29T22:41:34.859Z,3.90
2022-07-29T22:44:01.594Z,4.38
2022-07-29T22:46:28.392Z,4.10
2022-07-29T22:48:55.156Z,3.58
2022-07-29T22:51:24.335Z,3.97
2022-07-29T22:53:50.935Z,3.83
2022-07-29T22:56:20.212Z,4.57
2022-07-29T22:58:46.846Z,4.07
2022-07-29T23:01:13.432Z,4.47
2022-07-29T23:03:40.160Z,4.43
2022-07-29T23:06:17.439Z,4.57
2022-07-29T23:08:44.206Z,4.68
2022-07-29T23:11:10.789Z,4.90
2022-07-29T23:13:37.510Z,5.43
2022-07-29T23:16:04.268Z,5.20
2022-07-29T23:18:30.969Z,5.18
2022-07-29T23:20:57.582Z,4.80
2022-07-29T23:23:24.269Z,5.10
2022-07-29T23:25:50.857Z,4.30
2022-07-29T23:28:18.805Z,4.60
2022-07-29T23:30:45.402Z,4.57
2022-07-29T23:33:11.969Z,5.00
2022-07-29T23:35:38.593Z,4.97
2022-07-29T23:38:05.315Z,4.97
2022-07-29T23:40:31.977Z,4.75
2022-07-29T23:42:58.535Z,4.50
2022-07-29T23:45:42.889Z,4.18
2022-07-29T23:48:11.701Z,4.23
2022-07-29T23:50:38.233Z,4.35
2022-07-29T23:53:05.065Z,5.63
2022-07-29T23:55:36.983Z,5.43
2022-07-29T23:58:05.505Z,5.70
